Time;durP1;ratioP1;P1;durP2;ratioP2;P2;SDS_P1;SDS_P2;PMS_P1;PMS_P2;Temp;Humidity;BMP_temperature;BMP_pressure;BME280_temperature;BME280_humidity;BME280_pressure;Samples;Min_cycle;Max_cycle;Signal;HPM_P1;HPM_P2
2022/03/16 00:00:22;;;;;;;;;;;7.10;99.90;;;;;;5032464;28;20396;-70
2022/03/16 00:02:48;;;;;;;;;;;7.00;99.90;;;;;;5032276;28;19917;-70
2022/03/16 00:05:14;;;;;;;;;;;7.00;99.90;;;;;;5032195;28;19909;-70
2022/03/16 00:07:40;;;;;;;;;;;6.90;99.90;;;;;;5032198;28;19917;-71
2022/03/16 00:10:07;;;;;;;;;;;6.90;99.90;;;;;;5032243;28;19943;-70
2022/03/16 00:12:33;;;;;;;;;;;6.90;99.90;;;;;;5036371;28;19909;-70
2022/03/16 00:14:59;;;;;;;;;;;6.80;99.90;;;;;;5038278;28;19945;-70
2022/03/16 00:17:25;;;;;;;;;;;6.80;99.90;;;;;;5036503;28;19968;-70
2022/03/16 00:19:50;;;;;;;;;;;6.80;99.90;;;;;;5032117;28;19913;-70
2022/03/16 00:22:16;;;;;;;;;;;6.70;99.90;;;;;;5031943;28;19917;-70
2022/03/16 00:24:41;;;;;;;;;;;6.70;99.90;;;;;;5048238;28;19947;-70
2022/03/16 00:27:07;;;;;;;;;;;6.60;99.90;;;;;;5034924;28;20056;-70
2022/03/16 00:29:32;;;;;;;;;;;6.60;99.90;;;;;;5032105;28;20370;-70
2022/03/16 00:31:58;;;;;;;;;;;6.60;99.90;;;;;;5031960;28;19909;-71
2022/03/16 00:34:24;;;;;;;;;;;6.60;99.90;;;;;;5049707;28;19908;-70
2022/03/16 00:36:49;;;;;;;;;;;6.50;99.90;;;;;;5051149;28;20275;-70
2022/03/16 00:39:15;;;;;;;;;;;6.50;99.90;;;;;;5051224;28;19909;-70
2022/03/16 00:41:40;;;;;;;;;;;6.50;99.90;;;;;;5051046;28;19909;-70
2022/03/16 00:44:06;;;;;;;;;;;6.50;99.90;;;;;;5050839;28;20333;-70
2022/03/16 00:46:32;;;;;;;;;;;6.50;99.90;;;;;;5051097;28;19912;-70
2022/03/16 00:48:57;;;;;;;;;;;6.50;99.90;;;;;;5050868;28;19917;-70
2022/03/16 00:51:23;;;;;;;;;;;6.50;99.90;;;;;;5050891;28;19918;-70
2022/03/16 00:53:49;;;;;;;;;;;6.50;99.90;;;;;;5043324;28;19945;-70
2022/03/16 00:56:14;;;;;;;;;;;6.50;99.90;;;;;;5038577;28;19909;-70
2022/03/16 00:58:40;;;;;;;;;;;6.50;99.90;;;;;;5038134;28;19959;-70
2022/03/16 01:01:05;;;;;;;;;;;6.50;99.90;;;;;;5036114;28;19909;-70
2022/03/16 01:03:31;;;;;;;;;;;6.40;99.90;;;;;;5035376;28;19940;-70
2022/03/16 01:05:57;;;;;;;;;;;6.50;99.90;;;;;;5035621;28;19909;-71
2022/03/16 01:08:22;;;;;;;;;;;6.50;99.90;;;;;;5035463;28;19913;-70
2022/03/16 01:10:48;;;;;;;;;;;6.40;99.90;;;;;;5036723;28;19945;-70
2022/03/16 01:13:13;;;;;;;;;;;6.50;99.90;;;;;;5038173;28;19909;-70
2022/03/16 01:15:39;;;;;;;;;;;6.40;99.90;;;;;;5035385;28;19967;-70
2022/03/16 01:18:04;;;;;;;;;;;6.40;99.90;;;;;;5035506;28;20010;-70
2022/03/16 01:20:30;;;;;;;;;;;6.40;99.90;;;;;;5035339;28;19914;-70
2022/03/16 01:22:55;;;;;;;;;;;6.40;99.90;;;;;;5036468;28;20385;-70
2022/03/16 01:25:21;;;;;;;;;;;6.40;99.90;;;;;;5045888;28;19909;-70
2022/03/16 01:27:46;;;;;;;;;;;6.40;99.90;;;;;;5035247;28;19920;-70
2022/03/16 01:30:13;;;;;;;;;;;6.40;99.90;;;;;;5035170;28;19917;-70
2022/03/16 01:32:39;;;;;;;;;;;6.40;99.90;;;;;;5035114;28;19909;-70
2022/03/16 01:35:05;;;;;;;;;;;6.40;99.90;;;;;;5034857;28;20275;-70
2022/03/16 01:37:30;;;;;;;;;;;6.40;99.90;;;;;;5035131;28;20007;-70
2022/03/16 01:39:56;;;;;;;;;;;6.40;99.90;;;;;;5034892;28;19909;-70
2022/03/16 01:42:21;;;;;;;;;;;6.40;99.90;;;;;;5034885;28;20269;-71
2022/03/16 01:44:49;;;;;;;;;;;6.30;99.90;;;;;;5034815;28;19909;-70
2022/03/16 01:47:15;;;;;;;;;;;6.30;99.90;;;;;;5034849;28;19917;-70
2022/03/16 01:49:41;;;;;;;;;;;6.30;99.90;;;;;;5034752;28;19915;-70
2022/03/16 01:52:07;;;;;;;;;;;6.30;99.90;;;;;;5034596;28;19913;-70
2022/03/16 01:54:33;;;;;;;;;;;6.30;99.90;;;;;;5055496;28;20418;-70
2022/03/16 01:56:59;;;;;;;;;;;6.30;99.90;;;;;;5043204;28;19909;-70
2022/03/16 01:59:24;;;;;;;;;;;6.30;99.90;;;;;;5034615;28;20270;-70
2022/03/16 02:01:50;;;;;;;;;;;6.30;99.90;;;;;;5034603;28;19964;-70
2022/03/16 02:04:15;;;;;;;;;;;6.30;99.90;;;;;;5034237;28;19913;-70
2022/03/16 02:06:41;;;;;;;;;;;6.30;99.90;;;;;;5034555;28;19941;-70
2022/03/16 02:09:06;;;;;;;;;;;6.30;99.90;;;;;;5032480;28;19913;-71
2022/03/16 02:11:32;;;;;;;;;;;6.30;99.90;;;;;;5034409;28;19913;-70
2022/03/16 02:13:57;;;;;;;;;;;6.30;99.90;;;;;;5034233;28;19955;-70
2022/03/16 02:16:23;;;;;;;;;;;6.30;99.90;;;;;;5034216;28;19924;-70
2022/03/16 02:18:49;;;;;;;;;;;6.30;99.90;;;;;;5034149;28;19999;-70
2022/03/16 02:21:15;;;;;;;;;;;6.30;99.90;;;;;;5034112;28;20372;-70
2022/03/16 02:23:41;;;;;;;;;;;6.30;99.90;;;;;;5040442;28;19960;-70
2022/03/16 02:26:06;;;;;;;;;;;6.30;99.90;;;;;;5040524;28;19913;-70
2022/03/16 02:28:32;;;;;;;;;;;6.20;99.90;;;;;;5034006;28;20390;-70
2022/03/16 02:30:59;;;;;;;;;;;6.20;99.90;;;;;;5034183;28;19909;-70
2022/03/16 02:33:25;;;;;;;;;;;6.30;99.90;;;;;;5033796;28;19921;-70
2022/03/16 02:35:50;;;;;;;;;;;6.20;99.90;;;;;;5034012;28;19992;-70
2022/03/16 02:38:16;;;;;;;;;;;6.20;99.90;;;;;;5034033;28;19915;-69
2022/03/16 02:40:41;;;;;;;;;;;6.20;99.90;;;;;;5034227;28;19909;-70
2022/03/16 02:43:07;;;;;;;;;;;6.30;99.90;;;;;;5033579;28;19996;-70
2022/03/16 02:45:32;;;;;;;;;;;6.30;99.90;;;;;;5033924;28;20007;-70
2022/03/16 02:47:58;;;;;;;;;;;6.20;99.90;;;;;;5033611;28;19917;-70
2022/03/16 02:50:24;;;;;;;;;;;6.20;99.90;;;;;;5033654;28;19987;-70
2022/03/16 02:52:50;;;;;;;;;;;6.20;99.90;;;;;;5033570;28;19913;-70
2022/03/16 02:55:15;;;;;;;;;;;6.30;99.90;;;;;;5048428;28;20007;-70
2022/03/16 02:57:41;;;;;;;;;;;6.20;99.90;;;;;;5033600;28;19964;-70
2022/03/16 03:00:07;;;;;;;;;;;6.30;99.90;;;;;;5033617;28;19909;-70
2022/03/16 03:02:33;;;;;;;;;;;6.30;99.90;;;;;;5033280;28;19913;-70
2022/03/16 03:04:58;;;;;;;;;;;6.30;99.90;;;;;;5033209;28;19987;-70
2022/03/16 03:07:24;;;;;;;;;;;6.30;99.90;;;;;;5033363;28;19913;-70
2022/03/16 03:09:49;;;;;;;;;;;6.30;99.90;;;;;;5033372;28;19916;-70
2022/03/16 03:12:15;;;;;;;;;;;6.30;99.90;;;;;;5033248;28;19915;-70
2022/03/16 03:14:41;;;;;;;;;;;6.30;99.90;;;;;;5033066;28;20354;-70
2022/03/16 03:17:06;;;;;;;;;;;6.30;99.90;;;;;;5032983;28;19917;-70
2022/03/16 03:19:32;;;;;;;;;;;6.30;99.90;;;;;;5032843;28;19909;-70
2022/03/16 03:21:57;;;;;;;;;;;6.30;99.90;;;;;;5032388;28;19917;-70
2022/03/16 03:24:23;;;;;;;;;;;6.30;99.90;;;;;;5038058;28;19909;-70
2022/03/16 03:26:48;;;;;;;;;;;6.30;99.90;;;;;;5044370;28;19936;-70
2022/03/16 03:29:14;;;;;;;;;;;6.30;99.90;;;;;;5032821;28;19936;-71
2022/03/16 03:31:40;;;;;;;;;;;6.30;99.90;;;;;;5032814;28;19914;-70
2022/03/16 03:34:05;;;;;;;;;;;6.20;99.90;;;;;;5032567;28;19909;-70
2022/03/16 03:36:31;;;;;;;;;;;6.20;99.90;;;;;;5032965;28;19917;-70
2022/03/16 03:38:57;;;;;;;;;;;6.20;99.90;;;;;;5033101;28;19956;-70
2022/03/16 03:41:22;;;;;;;;;;;6.20;99.90;;;;;;5032670;28;19909;-70
2022/03/16 03:43:48;;;;;;;;;;;6.20;99.90;;;;;;5032545;28;19909;-70
2022/03/16 03:46:13;;;;;;;;;;;6.20;99.90;;;;;;5032613;28;19910;-70
2022/03/16 03:48:39;;;;;;;;;;;6.20;99.90;;;;;;5032489;28;20063;-70
2022/03/16 03:51:04;;;;;;;;;;;6.20;99.90;;;;;;5032629;28;19995;-70
2022/03/16 03:53:30;;;;;;;;;;;6.20;99.90;;;;;;5038585;28;20286;-70
2022/03/16 03:55:55;;;;;;;;;;;6.20;99.90;;;;;;5040717;28;19909;-70
2022/03/16 03:58:21;;;;;;;;;;;6.20;99.90;;;;;;5032433;28;20388;-71
2022/03/16 04:00:46;;;;;;;;;;;6.20;99.90;;;;;;5032401;28;19917;-70
2022/03/16 04:03:12;;;;;;;;;;;6.10;99.90;;;;;;5032187;28;20314;-70
2022/03/16 04:05:37;;;;;;;;;;;6.00;99.90;;;;;;5032342;28;19916;-70
2022/03/16 04:08:03;;;;;;;;;;;6.00;99.90;;;;;;5032359;28;20366;-71
2022/03/16 04:10:29;;;;;;;;;;;5.90;99.90;;;;;;5032237;28;19952;-70
2022/03/16 04:12:54;;;;;;;;;;;5.80;99.90;;;;;;5032244;28;19949;-70
2022/03/16 04:15:20;;;;;;;;;;;5.80;99.90;;;;;;5031696;28;20330;-70
2022/03/16 04:17:46;;;;;;;;;;;5.80;99.90;;;;;;5032060;28;19986;-70
2022/03/16 04:20:11;;;;;;;;;;;5.80;99.90;;;;;;5032188;28;20321;-70
2022/03/16 04:22:37;;;;;;;;;;;5.80;99.90;;;;;;5031798;28;19909;-70
2022/03/16 04:25:03;;;;;;;;;;;5.80;99.90;;;;;;5046446;28;19909;-70
2022/03/16 04:27:29;;;;;;;;;;;5.70;99.90;;;;;;5033821;28;20449;-70
2022/03/16 04:29:54;;;;;;;;;;;5.70;99.90;;;;;;5032028;28;19952;-70
2022/03/16 04:32:20;;;;;;;;;;;5.70;99.90;;;;;;5035729;28;19909;-70
2022/03/16 04:34:46;;;;;;;;;;;5.70;99.90;;;;;;5038497;28;19913;-71
2022/03/16 04:37:12;;;;;;;;;;;5.80;99.90;;;;;;5038617;28;19916;-71
2022/03/16 04:39:37;;;;;;;;;;;5.80;99.90;;;;;;5038569;28;20282;-70
2022/03/16 04:42:03;;;;;;;;;;;5.80;99.90;;;;;;5038671;28;19909;-70
2022/03/16 04:44:29;;;;;;;;;;;5.90;99.90;;;;;;5038148;28;19909;-70
2022/03/16 04:46:54;;;;;;;;;;;5.90;99.90;;;;;;5038550;28;19921;-70
2022/03/16 04:49:20;;;;;;;;;;;5.90;99.90;;;;;;5038450;28;19913;-70
2022/03/16 04:51:45;;;;;;;;;;;5.80;99.90;;;;;;5038494;28;20215;-70
2022/03/16 04:54:11;;;;;;;;;;;5.70;99.90;;;;;;5039955;28;20370;-70
2022/03/16 04:56:36;;;;;;;;;;;5.60;99.90;;;;;;5049936;28;19909;-71
2022/03/16 04:59:02;;;;;;;;;;;5.50;99.90;;;;;;5039999;28;20265;-70
2022/03/16 05:01:28;;;;;;;;;;;5.50;99.90;;;;;;5039767;28;19996;-69
2022/03/16 05:03:53;;;;;;;;;;;5.60;99.90;;;;;;5045766;28;19944;-70
2022/03/16 05:06:19;;;;;;;;;;;5.60;99.90;;;;;;5038632;28;19913;-70
2022/03/16 05:08:47;;;;;;;;;;;5.70;99.90;;;;;;5038481;28;19952;-70
2022/03/16 05:11:13;;;;;;;;;;;5.70;99.90;;;;;;5038553;28;19916;-70
2022/03/16 05:13:38;;;;;;;;;;;5.80;99.90;;;;;;5038217;28;19909;-71
2022/03/16 05:16:06;;;;;;;;;;;5.80;99.90;;;;;;5038205;28;19924;-70
2022/03/16 05:18:31;;;;;;;;;;;5.80;99.90;;;;;;5038261;28;20398;-70
2022/03/16 05:20:57;;;;;;;;;;;5.90;99.90;;;;;;5038545;28;19909;-71
2022/03/16 05:23:22;;;;;;;;;;;5.90;99.90;;;;;;5043942;28;20377;-70
2022/03/16 05:25:48;;;;;;;;;;;5.80;99.90;;;;;;5045613;28;19916;-70
2022/03/16 05:28:13;;;;;;;;;;;5.70;99.90;;;;;;5038425;28;20420;-70
2022/03/16 05:30:39;;;;;;;;;;;5.60;99.90;;;;;;5038191;28;20000;-70
2022/03/16 05:33:04;;;;;;;;;;;5.60;99.90;;;;;;5038003;28;19909;-70
2022/03/16 05:35:30;;;;;;;;;;;5.70;99.90;;;;;;5038138;28;19916;-70
2022/03/16 05:37:56;;;;;;;;;;;5.60;99.90;;;;;;5038295;28;19909;-70
2022/03/16 05:40:22;;;;;;;;;;;5.70;99.90;;;;;;5038156;28;19913;-70
2022/03/16 05:42:47;;;;;;;;;;;5.70;99.90;;;;;;5037015;28;20343;-71
2022/03/16 05:45:13;;;;;;;;;;;5.80;99.90;;;;;;5034257;28;20359;-70
2022/03/16 05:47:39;;;;;;;;;;;5.80;99.90;;;;;;5034874;28;20438;-70
2022/03/16 05:50:05;;;;;;;;;;;5.90;99.90;;;;;;5034998;28;19913;-70
2022/03/16 05:52:31;;;;;;;;;;;5.90;99.90;;;;;;5034648;28;19909;-70
2022/03/16 05:54:57;;;;;;;;;;;5.90;99.90;;;;;;5048271;28;19916;-70
2022/03/16 05:57:23;;;;;;;;;;;6.00;99.90;;;;;;5036696;28;20011;-70
2022/03/16 05:59:49;;;;;;;;;;;6.00;99.90;;;;;;5034603;28;20010;-70
2022/03/16 06:02:14;;;;;;;;;;;6.00;99.90;;;;;;5034525;28;19917;-70
2022/03/16 06:04:40;;;;;;;;;;;5.90;99.90;;;;;;5034386;28;19924;-70
2022/03/16 06:07:06;;;;;;;;;;;5.80;99.90;;;;;;5034507;28;20386;-70
2022/03/16 06:09:32;;;;;;;;;;;5.80;99.90;;;;;;5034411;28;19960;-71
2022/03/16 06:11:58;;;;;;;;;;;5.80;99.90;;;;;;5034352;28;19909;-70
2022/03/16 06:14:24;;;;;;;;;;;5.90;99.90;;;;;;5034209;28;19936;-70
2022/03/16 06:16:50;;;;;;;;;;;5.90;99.90;;;;;;5034328;28;19921;-70
2022/03/16 06:19:15;;;;;;;;;;;6.10;99.90;;;;;;5034333;28;19917;-70
2022/03/16 06:21:41;;;;;;;;;;;6.10;99.90;;;;;;5034217;28;19909;-70
2022/03/16 06:24:07;;;;;;;;;;;6.20;99.90;;;;;;5036716;28;20282;-70
2022/03/16 06:26:32;;;;;;;;;;;6.20;99.90;;;;;;5051831;28;19909;-70
2022/03/16 06:28:58;;;;;;;;;;;6.20;99.90;;;;;;5033639;28;19919;-70
2022/03/16 06:31:24;;;;;;;;;;;6.20;99.90;;;;;;5033777;28;19910;-70
2022/03/16 06:33:49;;;;;;;;;;;6.20;99.90;;;;;;5031928;28;19913;-71
2022/03/16 06:36:15;;;;;;;;;;;6.20;99.90;;;;;;5033278;28;19916;-70
2022/03/16 06:38:40;;;;;;;;;;;6.30;99.90;;;;;;5033488;28;19909;-70
2022/03/16 06:41:06;;;;;;;;;;;6.30;99.90;;;;;;5033552;28;19932;-70
2022/03/16 06:43:31;;;;;;;;;;;6.30;99.90;;;;;;5033241;28;19994;-70
2022/03/16 06:45:57;;;;;;;;;;;6.30;99.90;;;;;;5033479;28;20278;-71
2022/03/16 06:48:23;;;;;;;;;;;6.40;99.90;;;;;;5033394;28;19913;-70
2022/03/16 06:50:49;;;;;;;;;;;6.40;99.90;;;;;;5033479;28;19915;-70
2022/03/16 06:53:15;;;;;;;;;;;6.50;99.90;;;;;;5037733;28;19909;-70
2022/03/16 06:55:40;;;;;;;;;;;6.50;99.90;;;;;;5036230;28;19949;-70
2022/03/16 06:58:06;;;;;;;;;;;6.60;99.90;;;;;;5033034;28;19912;-70
2022/03/16 07:00:32;;;;;;;;;;;6.60;99.90;;;;;;5032939;28;19919;-70
2022/03/16 07:02:58;;;;;;;;;;;6.60;99.90;;;;;;5032917;28;19974;-71
2022/03/16 07:05:26;;;;;;;;;;;6.70;99.90;;;;;;5033048;28;19916;-70
2022/03/16 07:07:52;;;;;;;;;;;6.70;99.90;;;;;;5032763;28;19917;-70
2022/03/16 07:10:17;;;;;;;;;;;6.80;99.90;;;;;;5032579;28;19978;-70
2022/03/16 07:12:43;;;;;;;;;;;6.80;99.90;;;;;;5032665;28;19910;-70
2022/03/16 07:15:09;;;;;;;;;;;6.70;99.90;;;;;;5032569;28;19913;-70
2022/03/16 07:17:34;;;;;;;;;;;6.70;99.90;;;;;;5032737;28;19917;-69
2022/03/16 07:20:00;;;;;;;;;;;6.80;99.90;;;;;;5039257;28;20381;-70
2022/03/16 07:22:25;;;;;;;;;;;6.80;99.90;;;;;;5042161;28;19909;-70
2022/03/16 07:24:51;;;;;;;;;;;6.80;99.90;;;;;;5047537;28;19916;-69
2022/03/16 07:27:16;;;;;;;;;;;6.90;99.90;;;;;;5037574;28;20305;-70
2022/03/16 07:29:42;;;;;;;;;;;7.10;99.90;;;;;;5036877;28;20309;-70
2022/03/16 07:32:07;;;;;;;;;;;7.00;99.90;;;;;;5031988;28;19947;-70
2022/03/16 07:34:33;;;;;;;;;;;7.00;99.90;;;;;;5048225;28;20370;-70
2022/03/16 07:36:58;;;;;;;;;;;7.10;99.90;;;;;;5032489;28;19909;-70
2022/03/16 07:39:24;;;;;;;;;;;7.20;99.90;;;;;;5036476;28;20413;-71
2022/03/16 07:41:49;;;;;;;;;;;7.20;99.90;;;;;;5032460;28;20020;-70
2022/03/16 07:44:15;;;;;;;;;;;7.30;99.90;;;;;;5032123;28;19909;-69
2022/03/16 07:46:41;;;;;;;;;;;7.40;99.90;;;;;;5032327;28;19909;-70
2022/03/16 07:49:06;;;;;;;;;;;7.30;99.90;;;;;;5036729;28;19935;-70
2022/03/16 07:51:32;;;;;;;;;;;7.30;99.90;;;;;;5041626;28;19909;-70
2022/03/16 07:53:57;;;;;;;;;;;7.40;99.90;;;;;;5035931;28;19909;-70
2022/03/16 07:56:23;;;;;;;;;;;7.50;99.90;;;;;;5052539;28;20019;-70
2022/03/16 07:58:48;;;;;;;;;;;7.40;99.90;;;;;;5032805;28;19913;-71
2022/03/16 08:01:14;;;;;;;;;;;7.30;99.90;;;;;;5032063;28;19909;-70
2022/03/16 08:03:39;;;;;;;;;;;7.50;99.90;;;;;;5031637;28;19967;-70
2022/03/16 08:06:05;;;;;;;;;;;7.50;99.90;;;;;;5031591;28;19916;-70
2022/03/16 08:08:31;;;;;;;;;;;7.70;99.90;;;;;;5031716;28;19913;-70
2022/03/16 08:10:58;;;;;;;;;;;7.80;99.90;;;;;;5031765;28;19916;-71
2022/03/16 08:13:24;;;;;;;;;;;7.90;99.90;;;;;;5031344;28;19910;-70
2022/03/16 08:15:49;;;;;;;;;;;7.90;99.90;;;;;;5031727;28;19919;-70
2022/03/16 08:18:15;;;;;;;;;;;7.90;99.90;;;;;;5033905;28;19909;-71
2022/03/16 08:20:40;;;;;;;;;;;7.80;99.90;;;;;;5033387;28;19909;-70
2022/03/16 08:23:06;;;;;;;;;;;7.80;99.90;;;;;;5039539;28;19909;-70
2022/03/16 08:25:32;;;;;;;;;;;7.90;99.90;;;;;;5040371;28;19917;-70
2022/03/16 08:27:59;;;;;;;;;;;8.10;99.90;;;;;;5031501;28;19936;-70
2022/03/16 08:30:24;;;;;;;;;;;8.10;99.90;;;;;;5031778;28;19913;-70
2022/03/16 08:32:50;;;;;;;;;;;8.10;99.90;;;;;;5031418;28;19916;-70
2022/03/16 08:35:15;;;;;;;;;;;8.10;99.90;;;;;;5031415;28;19916;-70
2022/03/16 08:37:41;;;;;;;;;;;8.20;99.90;;;;;;5030608;28;20293;-70
2022/03/16 08:40:07;;;;;;;;;;;8.10;99.90;;;;;;5040860;28;19913;-70
2022/03/16 08:42:32;;;;;;;;;;;8.00;99.90;;;;;;5036145;28;20368;-70
2022/03/16 08:44:58;;;;;;;;;;;7.90;99.90;;;;;;5031189;28;20011;-70
2022/03/16 08:47:24;;;;;;;;;;;7.80;99.90;;;;;;5031345;28;20001;-71
2022/03/16 08:49:51;;;;;;;;;;;7.80;99.90;;;;;;5031513;28;19913;-70
2022/03/16 08:52:17;;;;;;;;;;;8.00;99.90;;;;;;5031365;28;19909;-70
2022/03/16 08:54:43;;;;;;;;;;;8.00;99.90;;;;;;5041941;28;19982;-70
2022/03/16 08:57:09;;;;;;;;;;;7.90;99.90;;;;;;5034511;28;19913;-70
2022/03/16 08:59:35;;;;;;;;;;;8.00;99.90;;;;;;5031387;28;19963;-70
2022/03/16 09:02:01;;;;;;;;;;;7.90;99.90;;;;;;5031770;28;20281;-70
2022/03/16 09:04:26;;;;;;;;;;;7.90;99.90;;;;;;5041355;28;19909;-70
2022/03/16 09:06:52;;;;;;;;;;;8.20;99.90;;;;;;5050519;28;19909;-70
2022/03/16 09:09:17;;;;;;;;;;;8.30;99.90;;;;;;5044856;28;19917;-70
2022/03/16 09:11:43;;;;;;;;;;;8.30;99.90;;;;;;5050159;28;19916;-70
2022/03/16 09:14:08;;;;;;;;;;;8.30;99.90;;;;;;5050504;28;19909;-71
2022/03/16 09:16:34;;;;;;;;;;;8.30;99.90;;;;;;5050366;28;19924;-69
2022/03/16 09:18:59;;;;;;;;;;;8.40;99.90;;;;;;5051532;28;20294;-69
2022/03/16 09:21:25;;;;;;;;;;;8.50;99.90;;;;;;5053994;28;19963;-71
2022/03/16 09:23:54;;;;;;;;;;;8.70;99.90;;;;;;5041816;28;19916;-71
2022/03/16 09:26:22;;;;;;;;;;;8.50;99.90;;;;;;5042670;28;19920;-70
2022/03/16 09:28:49;;;;;;;;;;;8.60;99.90;;;;;;5036222;28;19913;-70
2022/03/16 09:31:15;;;;;;;;;;;8.70;99.90;;;;;;5033504;28;19909;-70
2022/03/16 09:33:41;;;;;;;;;;;8.50;99.90;;;;;;5034366;28;19909;-70
2022/03/16 09:36:09;;;;;;;;;;;8.50;99.90;;;;;;5034716;28;19992;-71
2022/03/16 09:38:35;;;;;;;;;;;8.50;99.90;;;;;;5042113;28;19962;-71
2022/03/16 09:41:02;;;;;;;;;;;8.40;99.90;;;;;;5054081;28;19967;-71
2022/03/16 09:43:31;;;;;;;;;;;8.50;99.90;;;;;;5034247;28;19963;-70
2022/03/16 09:46:02;;;;;;;;;;;8.50;99.90;;;;;;5034633;28;19963;-71
2022/03/16 09:48:28;;;;;;;;;;;8.50;99.90;;;;;;5034482;28;19913;-70
2022/03/16 09:50:54;;;;;;;;;;;8.60;99.90;;;;;;5034415;28;19913;-71
2022/03/16 09:53:20;;;;;;;;;;;8.80;99.90;;;;;;5040750;28;19913;-70
2022/03/16 09:55:46;;;;;;;;;;;8.80;99.90;;;;;;5041167;28;19996;-70
2022/03/16 09:58:12;;;;;;;;;;;8.70;99.90;;;;;;5046452;28;20000;-70
2022/03/16 10:00:38;;;;;;;;;;;8.90;99.90;;;;;;5038614;28;19916;-70
2022/03/16 10:03:04;;;;;;;;;;;8.90;99.90;;;;;;5033853;28;19970;-70
2022/03/16 10:05:30;;;;;;;;;;;8.90;99.90;;;;;;5033807;28;19925;-70
2022/03/16 10:07:59;;;;;;;;;;;9.00;99.90;;;;;;5033894;28;19913;-72
2022/03/16 10:13:21;;;;;;;;;;;9.00;99.90;;;;;;5046878;28;19962;-70
2022/03/16 10:15:51;;;;;;;;;;;9.10;99.90;;;;;;5052615;28;19920;-70
2022/03/16 10:18:18;;;;;;;;;;;9.30;99.90;;;;;;5052927;28;20358;-70
2022/03/16 10:20:45;;;;;;;;;;;9.10;99.90;;;;;;5052415;28;20201;-70
2022/03/16 10:23:18;;;;;;;;;;;9.40;99.90;;;;;;5040275;28;19909;-70
2022/03/16 10:25:45;;;;;;;;;;;9.60;99.90;;;;;;5051107;28;20365;-70
2022/03/16 10:28:14;;;;;;;;;;;9.70;99.90;;;;;;5033254;28;19964;-70
2022/03/16 10:30:47;;;;;;;;;;;9.80;99.90;;;;;;5032217;28;20265;-70
2022/03/16 10:33:16;;;;;;;;;;;9.80;99.90;;;;;;5033070;28;19909;-70
2022/03/16 10:35:55;;;;;;;;;;;9.80;99.90;;;;;;5043155;28;19916;-70
2022/03/16 10:38:22;;;;;;;;;;;9.90;99.90;;;;;;5040012;28;19952;-71
2022/03/16 10:40:49;;;;;;;;;;;10.00;99.90;;;;;;5038846;28;19971;-70
2022/03/16 10:48:59;;;;;;;;;;;10.30;99.90;;;;;;5051144;28;19919;-71
2022/03/16 10:51:24;;;;;;;;;;;10.40;99.90;;;;;;5051495;28;20276;-70
2022/03/16 10:53:52;;;;;;;;;;;10.30;99.90;;;;;;5044073;28;20007;-70
2022/03/16 10:56:18;;;;;;;;;;;9.80;99.90;;;;;;5043331;28;19909;-71
2022/03/16 10:58:45;;;;;;;;;;;10.00;99.90;;;;;;5042301;28;20362;-70
2022/03/16 11:01:12;;;;;;;;;;;10.20;99.90;;;;;;5044836;28;20492;-70
2022/03/16 11:03:38;;;;;;;;;;;10.40;99.90;;;;;;5039227;28;20350;-70
2022/03/16 11:06:05;;;;;;;;;;;10.30;99.90;;;;;;5032459;28;20355;-70
2022/03/16 11:08:35;;;;;;;;;;;10.50;99.90;;;;;;5032548;28;19952;-70
2022/03/16 11:13:27;;;;;;;;;;;10.30;99.90;;;;;;5031348;28;19999;-70
2022/03/16 11:13:49;;;;;;;;;;;10.20;99.90;;;;;;5045156;28;20255;-70
2022/03/16 11:16:19;;;;;;;;;;;10.30;99.90;;;;;;5031891;28;19961;-71
2022/03/16 11:18:46;;;;;;;;;;;10.40;99.90;;;;;;5032553;28;19909;-71
2022/03/16 11:21:14;;;;;;;;;;;10.40;99.90;;;;;;5032456;28;20362;-72
2022/03/16 11:26:25;;;;;;;;;;;10.50;99.90;;;;;;5043694;28;19915;-71
2022/03/16 11:28:57;;;;;;;;;;;10.60;99.90;;;;;;5051346;28;19917;-70
2022/03/16 11:31:24;;;;;;;;;;;11.00;99.90;;;;;;5045051;28;19917;-70
2022/03/16 11:33:51;;;;;;;;;;;11.10;99.90;;;;;;5032743;28;20378;-71
2022/03/16 11:36:34;;;;;;;;;;;11.40;99.90;;;;;;5032072;28;19916;-70
2022/03/16 11:39:02;;;;;;;;;;;11.70;99.90;;;;;;5035688;28;20004;-71
2022/03/16 11:41:28;;;;;;;;;;;12.50;99.90;;;;;;5037856;28;20373;-70
2022/03/16 11:44:21;;;;;;;;;;;13.50;99.90;;;;;;5031723;28;19916;-70
2022/03/16 11:46:47;;;;;;;;;;;12.80;99.90;;;;;;5046444;28;19909;-71
2022/03/16 11:49:12;;;;;;;;;;;13.30;99.90;;;;;;5050855;28;19920;-71
2022/03/16 11:51:55;;;;;;;;;;;13.30;99.90;;;;;;5050790;28;19909;-71
2022/03/16 11:54:38;;;;;;;;;;;12.80;99.90;;;;;;5040836;28;19970;-70
2022/03/16 11:57:03;;;;;;;;;;;12.10;99.90;;;;;;5043070;28;20243;-70
2022/03/16 11:59:31;;;;;;;;;;;11.40;99.90;;;;;;5031876;28;19909;-70
2022/03/16 12:02:10;;;;;;;;;;;11.50;99.90;;;;;;5031667;28;19916;-71
2022/03/16 12:04:42;;;;;;;;;;;11.80;99.90;;;;;;5030306;28;19909;-70
2022/03/16 12:07:11;;;;;;;;;;;11.90;99.90;;;;;;5031849;28;19909;-71
2022/03/16 12:10:10;;;;;;;;;;;11.70;99.90;;;;;;5031780;28;19920;-70
2022/03/16 12:12:51;;;;;;;;;;;11.80;99.90;;;;;;5050642;28;20003;-71
2022/03/16 12:15:27;;;;;;;;;;;11.60;99.90;;;;;;5044739;28;19909;-71
2022/03/16 12:17:54;;;;;;;;;;;11.80;99.90;;;;;;5050618;28;19917;-70
2022/03/16 12:20:26;;;;;;;;;;;11.80;99.90;;;;;;5050584;28;19974;-71
2022/03/16 12:22:53;;;;;;;;;;;11.80;99.90;;;;;;5044357;28;19909;-71
2022/03/16 12:25:28;;;;;;;;;;;11.80;99.90;;;;;;5040870;28;20399;-70
2022/03/16 12:30:48;;;;;;;;;;;11.80;99.90;;;;;;5044086;28;20419;-70
2022/03/16 12:33:22;;;;;;;;;;;11.90;99.90;;;;;;5049662;28;19908;-71
2022/03/16 12:36:01;;;;;;;;;;;12.10;99.90;;;;;;5050083;28;19909;-71
2022/03/16 12:38:29;;;;;;;;;;;12.40;99.90;;;;;;5041059;28;19976;-71
2022/03/16 12:43:47;;;;;;;;;;;12.30;99.90;;;;;;5040886;28;19916;-71
2022/03/16 12:46:23;;;;;;;;;;;12.20;99.90;;;;;;5030787;28;19910;-71
2022/03/16 12:48:49;;;;;;;;;;;12.20;99.90;;;;;;5041239;28;20011;-71
2022/03/16 12:51:32;;;;;;;;;;;11.90;99.90;;;;;;5030966;28;19913;-71
2022/03/16 12:53:58;;;;;;;;;;;12.10;99.90;;;;;;5044924;28;19908;-72
2022/03/16 12:56:23;;;;;;;;;;;12.40;99.90;;;;;;5045670;28;19916;-71
2022/03/16 12:58:52;;;;;;;;;;;12.60;99.90;;;;;;5034814;28;19952;-70
2022/03/16 13:01:18;;;;;;;;;;;12.50;99.90;;;;;;5036268;28;19916;-72
2022/03/16 13:03:44;;;;;;;;;;;12.20;99.90;;;;;;5047377;28;20336;-70
2022/03/16 13:06:14;;;;;;;;;;;12.50;99.90;;;;;;5034619;28;20247;-70
2022/03/16 13:08:42;;;;;;;;;;;12.50;99.90;;;;;;5034313;28;19919;-71
2022/03/16 13:11:17;;;;;;;;;;;12.90;99.90;;;;;;5034664;28;20624;-70
2022/03/16 13:13:46;;;;;;;;;;;12.70;99.90;;;;;;5034379;28;19909;-71
2022/03/16 13:16:31;;;;;;;;;;;12.80;99.90;;;;;;5034820;28;19975;-70
2022/03/16 13:18:56;;;;;;;;;;;12.90;99.90;;;;;;5034370;28;20292;-71
2022/03/16 13:21:25;;;;;;;;;;;12.30;99.90;;;;;;5034239;28;19913;-71
2022/03/16 13:24:01;;;;;;;;;;;12.40;99.90;;;;;;5042402;28;19917;-70
2022/03/16 13:26:28;;;;;;;;;;;12.50;99.90;;;;;;5053262;28;19916;-72
2022/03/16 13:28:55;;;;;;;;;;;12.70;99.90;;;;;;5034257;28;19967;-70
2022/03/16 13:31:27;;;;;;;;;;;12.80;99.90;;;;;;5034487;28;19917;-71
2022/03/16 13:33:53;;;;;;;;;;;12.80;99.90;;;;;;5033855;28;19909;-71
2022/03/16 13:36:29;;;;;;;;;;;12.80;99.90;;;;;;5034155;28;20278;-71
2022/03/16 13:38:55;;;;;;;;;;;12.80;99.90;;;;;;5038310;28;19916;-71
2022/03/16 13:41:23;;;;;;;;;;;12.50;99.90;;;;;;5046102;28;19909;-70
2022/03/16 13:44:00;;;;;;;;;;;12.40;99.90;;;;;;5034926;28;20377;-70
2022/03/16 13:46:39;;;;;;;;;;;12.60;99.90;;;;;;5034133;28;19913;-70
2022/03/16 13:49:08;;;;;;;;;;;12.70;99.90;;;;;;5034054;28;19913;-71
2022/03/16 13:51:34;;;;;;;;;;;12.60;99.90;;;;;;5034413;28;20385;-70
2022/03/16 13:54:02;;;;;;;;;;;12.50;99.90;;;;;;5043624;28;19957;-70
2022/03/16 13:56:28;;;;;;;;;;;12.40;99.90;;;;;;5036738;28;19909;-70
2022/03/16 13:58:53;;;;;;;;;;;12.30;99.90;;;;;;5033765;28;19920;-71
2022/03/16 14:01:23;;;;;;;;;;;12.00;99.90;;;;;;5034002;28;19909;-71
2022/03/16 14:04:05;;;;;;;;;;;12.30;99.90;;;;;;5033356;28;19944;-70
2022/03/16 14:06:36;;;;;;;;;;;12.70;99.90;;;;;;5053056;28;19913;-70
2022/03/16 14:09:02;;;;;;;;;;;12.60;99.90;;;;;;5052621;28;19912;-71
2022/03/16 14:11:31;;;;;;;;;;;12.90;99.90;;;;;;5052938;28;19909;-72
2022/03/16 14:13:57;;;;;;;;;;;13.10;99.90;;;;;;5033756;28;19991;-70
2022/03/16 14:16:22;;;;;;;;;;;13.10;99.90;;;;;;5033588;28;19949;-70
2022/03/16 14:18:48;;;;;;;;;;;13.00;99.90;;;;;;5033544;28;19956;-71
2022/03/16 14:21:13;;;;;;;;;;;12.90;99.90;;;;;;5033728;28;19909;-70
2022/03/16 14:23:39;;;;;;;;;;;12.90;99.90;;;;;;5042252;28;19909;-72
2022/03/16 14:26:05;;;;;;;;;;;12.60;99.90;;;;;;5040375;28;19948;-70
2022/03/16 14:28:31;;;;;;;;;;;12.30;99.90;;;;;;5033683;28;19960;-70
2022/03/16 14:30:57;;;;;;;;;;;12.00;99.90;;;;;;5033754;28;19916;-70
2022/03/16 14:33:24;;;;;;;;;;;11.90;99.90;;;;;;5032877;28;19909;-70
2022/03/16 14:35:50;;;;;;;;;;;12.10;99.90;;;;;;5033664;28;20282;-70
2022/03/16 14:38:16;;;;;;;;;;;12.20;99.90;;;;;;5037450;28;19996;-70
2022/03/16 14:40:43;;;;;;;;;;;12.30;99.90;;;;;;5040189;28;20350;-70